sensor_id;sensor_type;location;lat;lon;timestamp;temperature;humidity
7654;DHT22;3869;48.406;10.774;2023-08-07T00:00:02;11.70;99.90
7654;DHT22;3869;48.406;10.774;2023-08-07T00:02:30;11.60;99.90
7654;DHT22;3869;48.406;10.774;2023-08-07T00:04:59;11.60;99.90
7654;DHT22;3869;48.406;10.774;2023-08-07T00:07:27;11.60;99.90
7654;DHT22;3869;48.406;10.774;2023-08-07T00:09:55;11.50;99.90
7654;DHT22;3869;48.406;10.774;2023-08-07T00:12:23;11.40;99.90
7654;DHT22;3869;48.406;10.774;2023-08-07T00:14:51;11.40;99.90
7654;DHT22;3869;48.406;10.774;2023-08-07T00:17:19;11.40;99.90
7654;DHT22;3869;48.406;10.774;2023-08-07T00:19:47;11.40;99.90
7654;DHT22;3869;48.406;10.774;2023-08-07T00:22:16;11.40;99.90
7654;DHT22;3869;48.406;10.774;2023-08-07T00:24:44;11.30;99.90
7654;DHT22;3869;48.406;10.774;2023-08-07T00:27:12;11.30;99.90
7654;DHT22;3869;48.406;10.774;2023-08-07T00:29:41;11.30;99.90
7654;DHT22;3869;48.406;10.774;2023-08-07T00:32:09;11.20;99.90
7654;DHT22;3869;48.406;10.774;2023-08-07T00:34:37;11.20;99.90
7654;DHT22;3869;48.406;10.774;2023-08-07T00:37:05;11.20;99.90
7654;DHT22;3869;48.406;10.774;2023-08-07T00:39:34;11.20;99.90
7654;DHT22;3869;48.406;10.774;2023-08-07T00:42:03;11.20;99.90
7654;DHT22;3869;48.406;10.774;2023-08-07T00:44:31;11.20;99.90
7654;DHT22;3869;48.406;10.774;2023-08-07T00:46:59;11.20;99.90
7654;DHT22;3869;48.406;10.774;2023-08-07T00:49:27;11.20;99.90
7654;DHT22;3869;48.406;10.774;2023-08-07T00:51:55;11.20;99.90
7654;DHT22;3869;48.406;10.774;2023-08-07T00:54:25;11.20;99.90
7654;DHT22;3869;48.406;10.774;2023-08-07T00:56:55;11.20;99.90
7654;DHT22;3869;48.406;10.774;2023-08-07T00:59:23;11.20;99.90
7654;DHT22;3869;48.406;10.774;2023-08-07T01:01:52;11.20;99.90
7654;DHT22;3869;48.406;10.774;2023-08-07T01:04:20;11.20;99.90
7654;DHT22;3869;48.406;10.774;2023-08-07T01:06:48;11.20;99.90
7654;DHT22;3869;48.406;10.774;2023-08-07T01:09:16;11.20;99.90
7654;DHT22;3869;48.406;10.774;2023-08-07T01:11:47;11.20;99.90
7654;DHT22;3869;48.406;10.774;2023-08-07T01:14:23;11.20;99.90
7654;DHT22;3869;48.406;10.774;2023-08-07T01:17:04;11.30;99.90
7654;DHT22;3869;48.406;10.774;2023-08-07T01:19:34;11.20;99.90
7654;DHT22;3869;48.406;10.774;2023-08-07T01:22:07;11.10;99.90
7654;DHT22;3869;48.406;10.774;2023-08-07T01:24:36;11.10;99.90
7654;DHT22;3869;48.406;10.774;2023-08-07T01:27:14;11.00;99.90
7654;DHT22;3869;48.406;10.774;2023-08-07T01:29:57;11.00;99.90
7654;DHT22;3869;48.406;10.774;2023-08-07T01:32:34;11.00;99.90
7654;DHT22;3869;48.406;10.774;2023-08-07T01:35:05;11.00;99.90
7654;DHT22;3869;48.406;10.774;2023-08-07T01:37:39;11.00;99.90
7654;DHT22;3869;48.406;10.774;2023-08-07T01:40:09;11.00;99.90
7654;DHT22;3869;48.406;10.774;2023-08-07T01:42:38;11.00;99.90
7654;DHT22;3869;48.406;10.774;2023-08-07T01:45:07;11.10;99.90
7654;DHT22;3869;48.406;10.774;2023-08-07T01:47:35;11.10;99.90
7654;DHT22;3869;48.406;10.774;2023-08-07T01:50:03;11.10;99.90
7654;DHT22;3869;48.406;10.774;2023-08-07T01:52:32;11.10;99.90
7654;DHT22;3869;48.406;10.774;2023-08-07T01:55:01;11.20;99.90
7654;DHT22;3869;48.406;10.774;2023-08-07T01:57:29;11.10;99.90
7654;DHT22;3869;48.406;10.774;2023-08-07T01:59:58;11.10;99.90
7654;DHT22;3869;48.406;10.774;2023-08-07T02:02:26;11.10;99.90
7654;DHT22;3869;48.406;10.774;2023-08-07T02:04:54;11.20;99.90
7654;DHT22;3869;48.406;10.774;2023-08-07T02:07:22;11.20;99.90
7654;DHT22;3869;48.406;10.774;2023-08-07T02:09:50;11.20;99.90
7654;DHT22;3869;48.406;10.774;2023-08-07T02:12:20;11.20;99.90
7654;DHT22;3869;48.406;10.774;2023-08-07T02:14:48;11.20;99.90
7654;DHT22;3869;48.406;10.774;2023-08-07T02:17:16;11.20;99.90
7654;DHT22;3869;48.406;10.774;2023-08-07T02:19:44;11.20;99.90
7654;DHT22;3869;48.406;10.774;2023-08-07T02:22:12;11.20;99.90
7654;DHT22;3869;48.406;10.774;2023-08-07T02:24:40;11.10;99.90
7654;DHT22;3869;48.406;10.774;2023-08-07T02:27:08;11.10;99.90
7654;DHT22;3869;48.406;10.774;2023-08-07T02:29:37;11.10;99.90
7654;DHT22;3869;48.406;10.774;2023-08-07T02:32:06;11.20;99.90
7654;DHT22;3869;48.406;10.774;2023-08-07T02:34:34;11.20;99.90
7654;DHT22;3869;48.406;10.774;2023-08-07T02:37:03;11.20;99.90
7654;DHT22;3869;48.406;10.774;2023-08-07T02:39:31;11.20;99.90
7654;DHT22;3869;48.406;10.774;2023-08-07T02:41:59;11.20;99.90
7654;DHT22;3869;48.406;10.774;2023-08-07T02:44:27;11.20;99.90
7654;DHT22;3869;48.406;10.774;2023-08-07T02:46:57;11.20;99.90
7654;DHT22;3869;48.406;10.774;2023-08-07T02:49:25;11.20;99.90
7654;DHT22;3869;48.406;10.774;2023-08-07T02:51:53;11.20;99.90
7654;DHT22;3869;48.406;10.774;2023-08-07T02:54:21;11.30;99.90
7654;DHT22;3869;48.406;10.774;2023-08-07T02:56:49;11.30;99.90
7654;DHT22;3869;48.406;10.774;2023-08-07T02:59:17;11.30;99.90
7654;DHT22;3869;48.406;10.774;2023-08-07T03:01:45;11.30;99.90
7654;DHT22;3869;48.406;10.774;2023-08-07T03:04:14;11.40;99.90
7654;DHT22;3869;48.406;10.774;2023-08-07T03:06:42;11.40;99.90
7654;DHT22;3869;48.406;10.774;2023-08-07T03:09:10;11.40;99.90
7654;DHT22;3869;48.406;10.774;2023-08-07T03:11:38;11.40;99.90
7654;DHT22;3869;48.406;10.774;2023-08-07T03:14:06;11.30;99.90
7654;DHT22;3869;48.406;10.774;2023-08-07T03:16:34;11.30;99.90
7654;DHT22;3869;48.406;10.774;2023-08-07T03:19:03;11.40;99.90
7654;DHT22;3869;48.406;10.774;2023-08-07T03:21:32;11.40;99.90
7654;DHT22;3869;48.406;10.774;2023-08-07T03:24:00;11.40;99.90
7654;DHT22;3869;48.406;10.774;2023-08-07T03:26:28;11.30;99.90
7654;DHT22;3869;48.406;10.774;2023-08-07T03:28:56;11.40;99.90
7654;DHT22;3869;48.406;10.774;2023-08-07T03:31:24;11.40;99.90
7654;DHT22;3869;48.406;10.774;2023-08-07T03:33:52;11.40;99.90
7654;DHT22;3869;48.406;10.774;2023-08-07T03:36:20;11.40;99.90
7654;DHT22;3869;48.406;10.774;2023-08-07T03:38:49;11.40;99.90
7654;DHT22;3869;48.406;10.774;2023-08-07T03:41:17;11.40;99.90
7654;DHT22;3869;48.406;10.774;2023-08-07T03:43:46;11.40;99.90
7654;DHT22;3869;48.406;10.774;2023-08-07T03:46:13;11.50;99.90
7654;DHT22;3869;48.406;10.774;2023-08-07T03:48:42;11.50;99.90
7654;DHT22;3869;48.406;10.774;2023-08-07T03:51:10;11.50;99.90
7654;DHT22;3869;48.406;10.774;2023-08-07T03:53:38;11.40;99.90
7654;DHT22;3869;48.406;10.774;2023-08-07T03:56:08;11.50;99.90
7654;DHT22;3869;48.406;10.774;2023-08-07T03:58:36;11.50;99.90
7654;DHT22;3869;48.406;10.774;2023-08-07T04:01:04;11.50;99.90
7654;DHT22;3869;48.406;10.774;2023-08-07T04:03:32;11.40;99.90
7654;DHT22;3869;48.406;10.774;2023-08-07T04:06:00;11.50;99.90
7654;DHT22;3869;48.406;10.774;2023-08-07T04:08:28;11.50;99.90
7654;DHT22;3869;48.406;10.774;2023-08-07T04:11:00;11.50;99.90
7654;DHT22;3869;48.406;10.774;2023-08-07T04:13:30;11.50;99.90
7654;DHT22;3869;48.406;10.774;2023-08-07T04:15:59;11.50;99.90
7654;DHT22;3869;48.406;10.774;2023-08-07T04:18:27;11.50;99.90
7654;DHT22;3869;48.406;10.774;2023-08-07T04:20:56;11.50;99.90
7654;DHT22;3869;48.406;10.774;2023-08-07T04:23:25;11.50;99.90
7654;DHT22;3869;48.406;10.774;2023-08-07T04:25:53;11.50;99.90
7654;DHT22;3869;48.406;10.774;2023-08-07T04:28:21;11.50;99.90
7654;DHT22;3869;48.406;10.774;2023-08-07T04:30:51;11.50;99.90
7654;DHT22;3869;48.406;10.774;2023-08-07T04:33:20;11.50;99.90
7654;DHT22;3869;48.406;10.774;2023-08-07T04:35:48;11.50;99.90
7654;DHT22;3869;48.406;10.774;2023-08-07T04:38:17;11.50;99.90
7654;DHT22;3869;48.406;10.774;2023-08-07T04:40:45;11.50;99.90
7654;DHT22;3869;48.406;10.774;2023-08-07T04:43:14;11.50;99.90
7654;DHT22;3869;48.406;10.774;2023-08-07T04:45:42;11.50;99.90
7654;DHT22;3869;48.406;10.774;2023-08-07T04:48:13;11.60;99.90
7654;DHT22;3869;48.406;10.774;2023-08-07T04:50:42;11.60;99.90
7654;DHT22;3869;48.406;10.774;2023-08-07T04:53:10;11.60;99.90
7654;DHT22;3869;48.406;10.774;2023-08-07T04:55:38;11.60;99.90
7654;DHT22;3869;48.406;10.774;2023-08-07T04:58:07;11.60;99.90
7654;DHT22;3869;48.406;10.774;2023-08-07T05:00:36;11.60;99.90
7654;DHT22;3869;48.406;10.774;2023-08-07T05:03:04;11.60;99.90
7654;DHT22;3869;48.406;10.774;2023-08-07T05:05:34;11.60;99.90
7654;DHT22;3869;48.406;10.774;2023-08-07T05:08:02;11.60;99.90
7654;DHT22;3869;48.406;10.774;2023-08-07T05:10:30;11.60;99.90
7654;DHT22;3869;48.406;10.774;2023-08-07T05:12:58;11.60;99.90
7654;DHT22;3869;48.406;10.774;2023-08-07T05:15:26;11.60;99.90
7654;DHT22;3869;48.406;10.774;2023-08-07T05:17:57;11.70;99.90
7654;DHT22;3869;48.406;10.774;2023-08-07T05:20:25;11.60;99.90
7654;DHT22;3869;48.406;10.774;2023-08-07T05:22:54;11.60;99.90
7654;DHT22;3869;48.406;10.774;2023-08-07T05:25:23;11.70;99.90
7654;DHT22;3869;48.406;10.774;2023-08-07T05:27:51;11.70;99.90
7654;DHT22;3869;48.406;10.774;2023-08-07T05:30:19;11.80;99.90
7654;DHT22;3869;48.406;10.774;2023-08-07T05:32:47;11.70;99.90
7654;DHT22;3869;48.406;10.774;2023-08-07T05:35:15;11.80;99.90
7654;DHT22;3869;48.406;10.774;2023-08-07T05:37:43;11.80;99.90
7654;DHT22;3869;48.406;10.774;2023-08-07T05:40:13;11.80;99.90
7654;DHT22;3869;48.406;10.774;2023-08-07T05:42:41;11.80;99.90
7654;DHT22;3869;48.406;10.774;2023-08-07T05:45:09;11.80;99.90
7654;DHT22;3869;48.406;10.774;2023-08-07T05:47:37;11.90;99.90
7654;DHT22;3869;48.406;10.774;2023-08-07T05:50:06;11.90;99.90
7654;DHT22;3869;48.406;10.774;2023-08-07T05:52:35;11.90;99.90
7654;DHT22;3869;48.406;10.774;2023-08-07T05:55:03;11.90;99.90
7654;DHT22;3869;48.406;10.774;2023-08-07T05:57:35;12.00;99.90
7654;DHT22;3869;48.406;10.774;2023-08-07T06:00:04;12.00;99.90
7654;DHT22;3869;48.406;10.774;2023-08-07T06:02:32;12.00;99.90
7654;DHT22;3869;48.406;10.774;2023-08-07T06:05:00;12.10;99.90
7654;DHT22;3869;48.406;10.774;2023-08-07T06:07:28;12.20;99.90
7654;DHT22;3869;48.406;10.774;2023-08-07T06:09:56;12.20;99.90
7654;DHT22;3869;48.406;10.774;2023-08-07T06:12:25;12.30;99.90
7654;DHT22;3869;48.406;10.774;2023-08-07T06:14:54;12.40;99.90
7654;DHT22;3869;48.406;10.774;2023-08-07T06:17:22;12.40;99.90
7654;DHT22;3869;48.406;10.774;2023-08-07T06:19:50;12.40;99.90
7654;DHT22;3869;48.406;10.774;2023-08-07T06:22:18;12.50;99.90
7654;DHT22;3869;48.406;10.774;2023-08-07T06:24:46;12.50;99.90
7654;DHT22;3869;48.406;10.774;2023-08-07T06:27:14;12.60;99.90
7654;DHT22;3869;48.406;10.774;2023-08-07T06:29:42;12.70;99.90
7654;DHT22;3869;48.406;10.774;2023-08-07T06:32:12;12.70;99.90
7654;DHT22;3869;48.406;10.774;2023-08-07T06:34:40;12.80;99.90
7654;DHT22;3869;48.406;10.774;2023-08-07T06:37:08;12.80;99.90
7654;DHT22;3869;48.406;10.774;2023-08-07T06:39:36;12.90;99.90
7654;DHT22;3869;48.406;10.774;2023-08-07T06:42:04;12.90;99.90
7654;DHT22;3869;48.406;10.774;2023-08-07T06:44:32;12.90;99.90
7654;DHT22;3869;48.406;10.774;2023-08-07T06:47:00;12.90;99.90
7654;DHT22;3869;48.406;10.774;2023-08-07T06:49:29;13.00;99.90
7654;DHT22;3869;48.406;10.774;2023-08-07T06:51:59;13.10;99.90
7654;DHT22;3869;48.406;10.774;2023-08-07T06:54:27;13.10;99.90
7654;DHT22;3869;48.406;10.774;2023-08-07T06:56:55;13.20;99.90
7654;DHT22;3869;48.406;10.774;2023-08-07T06:59:23;13.30;99.90
7654;DHT22;3869;48.406;10.774;2023-08-07T07:01:51;13.30;99.90
7654;DHT22;3869;48.406;10.774;2023-08-07T07:04:20;13.40;99.90
7654;DHT22;3869;48.406;10.774;2023-08-07T07:06:49;13.40;99.90
7654;DHT22;3869;48.406;10.774;2023-08-07T07:09:17;13.40;99.90
7654;DHT22;3869;48.406;10.774;2023-08-07T07:11:45;13.40;99.90
7654;DHT22;3869;48.406;10.774;2023-08-07T07:14:13;13.50;99.90
7654;DHT22;3869;48.406;10.774;2023-08-07T07:16:41;13.40;99.90
7654;DHT22;3869;48.406;10.774;2023-08-07T07:19:10;13.40;99.90
7654;DHT22;3869;48.406;10.774;2023-08-07T07:21:38;13.50;99.90
7654;DHT22;3869;48.406;10.774;2023-08-07T07:24:07;13.50;99.90
7654;DHT22;3869;48.406;10.774;2023-08-07T07:26:35;13.70;99.90
7654;DHT22;3869;48.406;10.774;2023-08-07T07:29:03;13.60;99.90
7654;DHT22;3869;48.406;10.774;2023-08-07T07:31:31;13.70;99.90
7654;DHT22;3869;48.406;10.774;2023-08-07T07:33:59;13.80;99.90
7654;DHT22;3869;48.406;10.774;2023-08-07T07:36:29;13.80;99.90
7654;DHT22;3869;48.406;10.774;2023-08-07T07:38:57;13.80;99.90
7654;DHT22;3869;48.406;10.774;2023-08-07T07:41:26;13.80;99.90
7654;DHT22;3869;48.406;10.774;2023-08-07T07:43:54;13.80;99.90
7654;DHT22;3869;48.406;10.774;2023-08-07T07:46:23;13.90;99.90
7654;DHT22;3869;48.406;10.774;2023-08-07T07:48:51;14.00;99.90
7654;DHT22;3869;48.406;10.774;2023-08-07T07:51:19;14.00;99.90
7654;DHT22;3869;48.406;10.774;2023-08-07T07:53:47;14.10;99.90
7654;DHT22;3869;48.406;10.774;2023-08-07T07:56:36;14.10;99.90
7654;DHT22;3869;48.406;10.774;2023-08-07T07:59:05;14.20;99.90
7654;DHT22;3869;48.406;10.774;2023-08-07T08:01:35;14.20;99.90
7654;DHT22;3869;48.406;10.774;2023-08-07T08:04:04;14.20;99.90
7654;DHT22;3869;48.406;10.774;2023-08-07T08:06:32;14.20;99.90
7654;DHT22;3869;48.406;10.774;2023-08-07T08:09:00;14.20;99.90
7654;DHT22;3869;48.406;10.774;2023-08-07T08:11:31;14.20;99.90
7654;DHT22;3869;48.406;10.774;2023-08-07T08:14:01;14.20;99.90
7654;DHT22;3869;48.406;10.774;2023-08-07T08:16:29;14.20;99.90
7654;DHT22;3869;48.406;10.774;2023-08-07T08:18:57;14.20;99.90
7654;DHT22;3869;48.406;10.774;2023-08-07T08:21:25;14.20;99.90
7654;DHT22;3869;48.406;10.774;2023-08-07T08:23:53;14.30;99.90
7654;DHT22;3869;48.406;10.774;2023-08-07T08:26:21;14.30;99.90
7654;DHT22;3869;48.406;10.774;2023-08-07T08:28:49;14.40;99.90
7654;DHT22;3869;48.406;10.774;2023-08-07T08:31:18;14.50;99.90
7654;DHT22;3869;48.406;10.774;2023-08-07T08:33:48;14.50;99.90
7654;DHT22;3869;48.406;10.774;2023-08-07T08:36:16;14.40;99.90
7654;DHT22;3869;48.406;10.774;2023-08-07T08:38:44;14.40;99.90
7654;DHT22;3869;48.406;10.774;2023-08-07T08:41:16;14.50;99.90
7654;DHT22;3869;48.406;10.774;2023-08-07T08:43:46;14.50;99.90
7654;DHT22;3869;48.406;10.774;2023-08-07T08:46:15;14.50;99.90
7654;DHT22;3869;48.406;10.774;2023-08-07T08:48:50;14.50;99.90
7654;DHT22;3869;48.406;10.774;2023-08-07T08:51:20;14.50;99.90
7654;DHT22;3869;48.406;10.774;2023-08-07T08:53:49;14.40;99.90
7654;DHT22;3869;48.406;10.774;2023-08-07T08:56:18;14.30;99.90
7654;DHT22;3869;48.406;10.774;2023-08-07T08:58:46;14.30;99.90
7654;DHT22;3869;48.406;10.774;2023-08-07T09:01:15;14.30;99.90
7654;DHT22;3869;48.406;10.774;2023-08-07T09:03:46;14.40;99.90
7654;DHT22;3869;48.406;10.774;2023-08-07T09:06:15;14.40;99.90
7654;DHT22;3869;48.406;10.774;2023-08-07T09:08:43;14.40;99.90
7654;DHT22;3869;48.406;10.774;2023-08-07T09:11:12;14.40;99.90
7654;DHT22;3869;48.406;10.774;2023-08-07T09:13:43;14.50;99.90
7654;DHT22;3869;48.406;10.774;2023-08-07T09:16:13;14.50;99.90
7654;DHT22;3869;48.406;10.774;2023-08-07T09:18:41;14.50;99.90
7654;DHT22;3869;48.406;10.774;2023-08-07T09:21:11;14.60;99.90
7654;DHT22;3869;48.406;10.774;2023-08-07T09:23:43;14.60;99.90
7654;DHT22;3869;48.406;10.774;2023-08-07T09:26:12;14.70;99.90
7654;DHT22;3869;48.406;10.774;2023-08-07T09:28:40;14.80;99.90
7654;DHT22;3869;48.406;10.774;2023-08-07T09:31:08;14.90;99.90
7654;DHT22;3869;48.406;10.774;2023-08-07T09:33:39;15.00;99.90
7654;DHT22;3869;48.406;10.774;2023-08-07T09:36:07;15.10;99.90
7654;DHT22;3869;48.406;10.774;2023-08-07T09:38:36;15.20;99.90
7654;DHT22;3869;48.406;10.774;2023-08-07T09:41:04;15.20;99.90
7654;DHT22;3869;48.406;10.774;2023-08-07T09:43:34;15.20;99.90
7654;DHT22;3869;48.406;10.774;2023-08-07T09:46:03;15.30;99.90
7654;DHT22;3869;48.406;10.774;2023-08-07T09:48:31;15.40;99.90
7654;DHT22;3869;48.406;10.774;2023-08-07T09:51:01;15.50;99.90
7654;DHT22;3869;48.406;10.774;2023-08-07T09:53:30;15.50;99.90
7654;DHT22;3869;48.406;10.774;2023-08-07T09:56:00;15.50;99.90
7654;DHT22;3869;48.406;10.774;2023-08-07T09:58:29;15.60;99.90
7654;DHT22;3869;48.406;10.774;2023-08-07T10:00:59;15.60;99.90
7654;DHT22;3869;48.406;10.774;2023-08-07T10:03:27;15.60;99.90
7654;DHT22;3869;48.406;10.774;2023-08-07T10:05:58;15.60;99.90
7654;DHT22;3869;48.406;10.774;2023-08-07T10:08:26;15.60;99.90
7654;DHT22;3869;48.406;10.774;2023-08-07T10:10:56;15.60;99.90
7654;DHT22;3869;48.406;10.774;2023-08-07T10:13:26;15.40;99.90
7654;DHT22;3869;48.406;10.774;2023-08-07T10:16:00;15.40;99.90
7654;DHT22;3869;48.406;10.774;2023-08-07T10:18:28;15.40;99.90
7654;DHT22;3869;48.406;10.774;2023-08-07T10:20:57;15.40;99.90
7654;DHT22;3869;48.406;10.774;2023-08-07T10:23:27;15.40;99.90
7654;DHT22;3869;48.406;10.774;2023-08-07T10:25:56;15.40;99.90
7654;DHT22;3869;48.406;10.774;2023-08-07T10:28:26;15.40;99.90
7654;DHT22;3869;48.406;10.774;2023-08-07T10:30:56;15.30;99.90
7654;DHT22;3869;48.406;10.774;2023-08-07T10:33:25;15.30;99.90
7654;DHT22;3869;48.406;10.774;2023-08-07T10:35:53;15.20;99.90
7654;DHT22;3869;48.406;10.774;2023-08-07T10:38:23;15.30;99.90
7654;DHT22;3869;48.406;10.774;2023-08-07T10:41:01;15.40;99.90
7654;DHT22;3869;48.406;10.774;2023-08-07T10:43:36;15.40;99.90
7654;DHT22;3869;48.406;10.774;2023-08-07T10:46:06;15.30;99.90
7654;DHT22;3869;48.406;10.774;2023-08-07T10:48:43;15.30;99.90
7654;DHT22;3869;48.406;10.774;2023-08-07T10:51:14;15.30;99.90
7654;DHT22;3869;48.406;10.774;2023-08-07T10:53:43;15.30;99.90
7654;DHT22;3869;48.406;10.774;2023-08-07T10:56:16;15.40;99.90
7654;DHT22;3869;48.406;10.774;2023-08-07T10:58:50;15.50;99.90
7654;DHT22;3869;48.406;10.774;2023-08-07T11:01:24;15.50;99.90
7654;DHT22;3869;48.406;10.774;2023-08-07T11:03:56;15.60;99.90
7654;DHT22;3869;48.406;10.774;2023-08-07T11:06:25;15.70;99.90
7654;DHT22;3869;48.406;10.774;2023-08-07T11:08:54;15.80;99.90
7654;DHT22;3869;48.406;10.774;2023-08-07T11:11:22;16.00;99.90
7654;DHT22;3869;48.406;10.774;2023-08-07T11:13:52;16.20;99.90
7654;DHT22;3869;48.406;10.774;2023-08-07T11:16:20;16.20;99.90
7654;DHT22;3869;48.406;10.774;2023-08-07T11:18:49;16.30;99.90
7654;DHT22;3869;48.406;10.774;2023-08-07T11:21:18;16.40;99.90
7654;DHT22;3869;48.406;10.774;2023-08-07T11:23:46;16.40;99.90
7654;DHT22;3869;48.406;10.774;2023-08-07T11:26:16;16.50;99.90
7654;DHT22;3869;48.406;10.774;2023-08-07T11:28:49;16.50;99.90
7654;DHT22;3869;48.406;10.774;2023-08-07T11:31:18;16.50;99.90
7654;DHT22;3869;48.406;10.774;2023-08-07T11:33:47;16.50;99.90
7654;DHT22;3869;48.406;10.774;2023-08-07T11:36:15;16.50;99.90
7654;DHT22;3869;48.406;10.774;2023-08-07T11:38:44;16.50;99.90
7654;DHT22;3869;48.406;10.774;2023-08-07T11:41:14;16.60;99.90
7654;DHT22;3869;48.406;10.774;2023-08-07T11:43:42;16.70;99.90
7654;DHT22;3869;48.406;10.774;2023-08-07T11:46:12;16.80;99.90
7654;DHT22;3869;48.406;10.774;2023-08-07T11:48:43;17.00;99.90
7654;DHT22;3869;48.406;10.774;2023-08-07T11:51:12;17.00;99.90
7654;DHT22;3869;48.406;10.774;2023-08-07T11:53:41;17.00;99.90
7654;DHT22;3869;48.406;10.774;2023-08-07T11:56:11;17.10;99.90
7654;DHT22;3869;48.406;10.774;2023-08-07T11:58:43;17.10;99.90
7654;DHT22;3869;48.406;10.774;2023-08-07T12:01:14;17.10;99.90
7654;DHT22;3869;48.406;10.774;2023-08-07T12:03:52;17.00;99.90
7654;DHT22;3869;48.406;10.774;2023-08-07T12:06:22;17.00;99.90
7654;DHT22;3869;48.406;10.774;2023-08-07T12:08:53;17.20;99.90
7654;DHT22;3869;48.406;10.774;2023-08-07T12:11:22;17.20;99.90
7654;DHT22;3869;48.406;10.774;2023-08-07T12:13:50;17.30;99.90
7654;DHT22;3869;48.406;10.774;2023-08-07T12:16:18;17.30;99.90
7654;DHT22;3869;48.406;10.774;2023-08-07T12:18:48;17.40;99.90
7654;DHT22;3869;48.406;10.774;2023-08-07T12:21:18;17.40;99.90
7654;DHT22;3869;48.406;10.774;2023-08-07T12:23:49;17.30;99.50
7654;DHT22;3869;48.406;10.774;2023-08-07T12:26:18;17.20;99.80
7654;DHT22;3869;48.406;10.774;2023-08-07T12:28:46;17.10;99.90
7654;DHT22;3869;48.406;10.774;2023-08-07T12:31:14;17.10;99.90
7654;DHT22;3869;48.406;10.774;2023-08-07T12:33:44;17.10;99.90
7654;DHT22;3869;48.406;10.774;2023-08-07T12:36:12;17.10;99.90
7654;DHT22;3869;48.406;10.774;2023-08-07T12:38:45;17.10;99.90
7654;DHT22;3869;48.406;10.774;2023-08-07T12:41:14;17.10;99.90
7654;DHT22;3869;48.406;10.774;2023-08-07T12:43:45;17.00;99.90
7654;DHT22;3869;48.406;10.774;2023-08-07T12:46:13;17.20;99.90
7654;DHT22;3869;48.406;10.774;2023-08-07T12:48:44;17.20;99.90
7654;DHT22;3869;48.406;10.774;2023-08-07T12:51:12;17.20;99.60
7654;DHT22;3869;48.406;10.774;2023-08-07T12:53:40;17.30;99.80
7654;DHT22;3869;48.406;10.774;2023-08-07T12:56:09;17.40;99.80
7654;DHT22;3869;48.406;10.774;2023-08-07T12:58:37;17.50;99.80
7654;DHT22;3869;48.406;10.774;2023-08-07T13:01:08;17.60;99.90
7654;DHT22;3869;48.406;10.774;2023-08-07T13:03:37;17.70;99.50
7654;DHT22;3869;48.406;10.774;2023-08-07T13:06:05;17.70;99.30
7654;DHT22;3869;48.406;10.774;2023-08-07T13:08:35;17.80;99.10
7654;DHT22;3869;48.406;10.774;2023-08-07T13:11:03;17.60;98.90
7654;DHT22;3869;48.406;10.774;2023-08-07T13:13:33;17.50;98.60
7654;DHT22;3869;48.406;10.774;2023-08-07T13:16:01;17.30;98.70
7654;DHT22;3869;48.406;10.774;2023-08-07T13:18:29;17.30;98.90
7654;DHT22;3869;48.406;10.774;2023-08-07T13:20:58;17.40;99.10
7654;DHT22;3869;48.406;10.774;2023-08-07T13:23:26;17.60;98.80
7654;DHT22;3869;48.406;10.774;2023-08-07T13:25:54;17.60;99.10
7654;DHT22;3869;48.406;10.774;2023-08-07T13:28:22;17.60;99.20
7654;DHT22;3869;48.406;10.774;2023-08-07T13:30:52;17.60;99.40
7654;DHT22;3869;48.406;10.774;2023-08-07T13:33:22;17.50;99.50
7654;DHT22;3869;48.406;10.774;2023-08-07T13:35:50;17.50;99.80
7654;DHT22;3869;48.406;10.774;2023-08-07T13:38:18;17.50;99.90
7654;DHT22;3869;48.406;10.774;2023-08-07T13:40:46;17.30;99.60
7654;DHT22;3869;48.406;10.774;2023-08-07T13:43:14;17.30;99.90
7654;DHT22;3869;48.406;10.774;2023-08-07T13:45:42;17.30;99.90
7654;DHT22;3869;48.406;10.774;2023-08-07T13:48:12;17.20;99.90
7654;DHT22;3869;48.406;10.774;2023-08-07T13:50:40;17.20;99.90
7654;DHT22;3869;48.406;10.774;2023-08-07T13:53:08;17.10;99.90
7654;DHT22;3869;48.406;10.774;2023-08-07T13:55:42;17.10;99.90
7654;DHT22;3869;48.406;10.774;2023-08-07T13:58:10;17.10;99.90
7654;DHT22;3869;48.406;10.774;2023-08-07T14:00:38;17.20;99.90
7654;DHT22;3869;48.406;10.774;2023-08-07T14:03:28;17.20;99.90
7654;DHT22;3869;48.406;10.774;2023-08-07T14:05:56;17.20;99.90
7654;DHT22;3869;48.406;10.774;2023-08-07T14:08:24;17.10;99.90
7654;DHT22;3869;48.406;10.774;2023-08-07T14:10:52;17.10;99.90
7654;DHT22;3869;48.406;10.774;2023-08-07T14:13:21;17.00;99.50
7654;DHT22;3869;48.406;10.774;2023-08-07T14:15:49;16.90;99.90
7654;DHT22;3869;48.406;10.774;2023-08-07T14:18:17;16.90;99.90
7654;DHT22;3869;48.406;10.774;2023-08-07T14:20:46;16.90;99.90
7654;DHT22;3869;48.406;10.774;2023-08-07T14:23:28;16.90;99.90
7654;DHT22;3869;48.406;10.774;2023-08-07T14:26:00;16.90;99.90
7654;DHT22;3869;48.406;10.774;2023-08-07T14:28:28;16.90;99.90
7654;DHT22;3869;48.406;10.774;2023-08-07T14:30:58;16.90;99.90
7654;DHT22;3869;48.406;10.774;2023-08-07T14:33:28;16.90;99.90
7654;DHT22;3869;48.406;10.774;2023-08-07T14:35:57;16.80;99.90
7654;DHT22;3869;48.406;10.774;2023-08-07T14:38:27;16.80;99.90
7654;DHT22;3869;48.406;10.774;2023-08-07T14:40:55;16.80;99.90
7654;DHT22;3869;48.406;10.774;2023-08-07T14:43:29;16.80;99.90
7654;DHT22;3869;48.406;10.774;2023-08-07T14:45:57;16.80;99.90
7654;DHT22;3869;48.406;10.774;2023-08-07T14:48:25;16.80;99.90
7654;DHT22;3869;48.406;10.774;2023-08-07T14:50:53;16.80;99.90
7654;DHT22;3869;48.406;10.774;2023-08-07T14:53:23;16.70;99.90
7654;DHT22;3869;48.406;10.774;2023-08-07T14:55:52;16.60;99.90
7654;DHT22;3869;48.406;10.774;2023-08-07T14:58:20;16.60;99.90
7654;DHT22;3869;48.406;10.774;2023-08-07T15:00:48;16.50;99.90
7654;DHT22;3869;48.406;10.774;2023-08-07T15:03:17;16.40;99.90
7654;DHT22;3869;48.406;10.774;2023-08-07T15:05:45;16.30;99.90
7654;DHT22;3869;48.406;10.774;2023-08-07T15:08:13;16.20;99.90
7654;DHT22;3869;48.406;10.774;2023-08-07T15:10:43;16.10;99.90
7654;DHT22;3869;48.406;10.774;2023-08-07T15:13:11;16.10;99.90
7654;DHT22;3869;48.406;10.774;2023-08-07T15:15:39;16.10;99.90
7654;DHT22;3869;48.406;10.774;2023-08-07T15:18:07;16.10;99.90
7654;DHT22;3869;48.406;10.774;2023-08-07T15:20:35;16.20;99.90
7654;DHT22;3869;48.406;10.774;2023-08-07T15:23:04;16.20;99.90
7654;DHT22;3869;48.406;10.774;2023-08-07T15:25:32;16.20;99.90
7654;DHT22;3869;48.406;10.774;2023-08-07T15:28:01;16.20;99.90
7654;DHT22;3869;48.406;10.774;2023-08-07T15:30:30;16.20;99.90
7654;DHT22;3869;48.406;10.774;2023-08-07T15:32:59;16.20;99.90
7654;DHT22;3869;48.406;10.774;2023-08-07T15:35:29;16.20;99.90
7654;DHT22;3869;48.406;10.774;2023-08-07T15:37:58;16.20;99.90
7654;DHT22;3869;48.406;10.774;2023-08-07T15:40:27;16.20;99.90
7654;DHT22;3869;48.406;10.774;2023-08-07T15:42:55;16.10;99.90
7654;DHT22;3869;48.406;10.774;2023-08-07T15:45:24;16.10;99.90
7654;DHT22;3869;48.406;10.774;2023-08-07T15:47:52;16.10;99.90
7654;DHT22;3869;48.406;10.774;2023-08-07T15:50:21;16.10;99.90
7654;DHT22;3869;48.406;10.774;2023-08-07T15:52:49;16.10;99.90
7654;DHT22;3869;48.406;10.774;2023-08-07T15:55:17;16.00;99.90